This is the latest recevied weather packets stored in our database for station/object TVARMINN. If no packets are shown the sender has not sent any weather packets the latest 10 day(s).
| Time | Temp. | Humidity | Pressure | Rain* | Wind** | Luminosity | Snow |
|---|---|---|---|---|---|---|---|
| 1788506688 | 15° C | 87% | 999 hPa | 0 mm | - | - | - |
| 1788505486 | 15° C | 86% | 999.1 hPa | 0 mm | - | - | - |
| 1788503087 | 14.44° C | 91% | 999.3 hPa | 0 mm | - | - | - |
| 1788501888 | 12.22° C | 98% | 999.4 hPa | 0 mm | - | - | - |
| 1788499485 | 12.78° C | 98% | 999.5 hPa | 0 mm | - | - | - |
| 1788498287 | 12.22° C | 99% | 999.5 hPa | 0 mm | - | - | - |
| 1788497086 | 12.22° C | 99% | 999.5 hPa | 0 mm | - | - | - |
| 1788495886 | 11.67° C | 99% | 999.7 hPa | 0 mm | - | - | - |
| 1788494686 | 11.67° C | 99% | 999.9 hPa | 0 mm | - | - | - |
| 1788492287 | 11.11° C | 98% | 1000.7 hPa | 0 mm | - | - | - |
| 1788485087 | 11.67° C | 96% | 1001.9 hPa | 0 mm | - | - | - |
| 1788470686 | 13.89° C | 85% | 1004.3 hPa | 0 mm | - | - | - |
| 1788469487 | 14.44° C | 83% | 1004.5 hPa | 0 mm | - | - | - |
| 1788467087 | 14.44° C | 84% | 1004.7 hPa | 0 mm | - | - | - |
| 1788465887 | 13.89° C | 85% | 1004.9 hPa | 0 mm | - | - | - |
| 1788463485 | 13.89° C | 83% | 1005.1 hPa | 0 mm | - | - | - |
| 1788441885 | 16.67° C | 72% | 1006 hPa | 0 mm | - | - | - |
| 1788435884 | 17.22° C | 70% | 1006 hPa | 0 mm | - | - | - |
| 1788434684 | 17.22° C | 70% | 1006.1 hPa | 0 mm | - | - | - |
| 1788433484 | 17.22° C | 72% | 1006.1 hPa | 0 mm | - | - | - |
| 1788431084 | 17.22° C | 70% | 1006.2 hPa | 0 mm | - | - | - |
| 1788429884 | 16.67° C | 69% | 1006.2 hPa | 0 mm | - | - | - |
| 1788428685 | 16.67° C | 70% | 1006.3 hPa | 0 mm | - | - | - |
| 1788427484 | 17.22° C | 69% | 1006.2 hPa | 0 mm | - | - | - |
| 1788426283 | 17.22° C | 68% | 1006.2 hPa | 0 mm | - | - | - |
* Rain latest hour (hover to see other rain measurements)
** Current wind speed in m/s (hover to see current wind gust speed)